sensor_id;sensor_type;location;lat;lon;timestamp;temperature;humidity
7920;DHT22;18778;47.610;9.776;2023-02-18T00:01:19;9.70;99.90
7920;DHT22;18778;47.610;9.776;2023-02-18T00:03:46;9.40;99.90
7920;DHT22;18778;47.610;9.776;2023-02-18T00:06:16;9.50;99.90
7920;DHT22;18778;47.610;9.776;2023-02-18T00:08:42;9.50;99.90
7920;DHT22;18778;47.610;9.776;2023-02-18T00:11:09;9.50;99.90
7920;DHT22;18778;47.610;9.776;2023-02-18T00:13:35;9.40;99.90
7920;DHT22;18778;47.610;9.776;2023-02-18T00:16:06;9.50;99.90
7920;DHT22;18778;47.610;9.776;2023-02-18T00:18:33;12.90;99.90
7920;DHT22;18778;47.610;9.776;2023-02-18T00:20:58;11.50;99.90
7920;DHT22;18778;47.610;9.776;2023-02-18T00:23:24;9.60;99.90
7920;DHT22;18778;47.610;9.776;2023-02-18T00:26:16;9.60;99.90
7920;DHT22;18778;47.610;9.776;2023-02-18T00:28:42;9.70;99.90
7920;DHT22;18778;47.610;9.776;2023-02-18T00:31:14;9.70;99.90
7920;DHT22;18778;47.610;9.776;2023-02-18T00:33:41;9.70;99.90
7920;DHT22;18778;47.610;9.776;2023-02-18T00:36:09;9.80;99.90
7920;DHT22;18778;47.610;9.776;2023-02-18T00:38:35;10.00;99.90
7920;DHT22;18778;47.610;9.776;2023-02-18T00:41:01;9.80;99.90
7920;DHT22;18778;47.610;9.776;2023-02-18T00:43:27;9.40;99.90
7920;DHT22;18778;47.610;9.776;2023-02-18T00:45:52;9.60;99.90
7920;DHT22;18778;47.610;9.776;2023-02-18T00:48:18;9.70;99.90
7920;DHT22;18778;47.610;9.776;2023-02-18T00:50:44;9.90;99.90
7920;DHT22;18778;47.610;9.776;2023-02-18T00:53:10;9.60;99.90
7920;DHT22;18778;47.610;9.776;2023-02-18T00:55:43;9.70;99.90
7920;DHT22;18778;47.610;9.776;2023-02-18T00:58:10;9.90;99.90
7920;DHT22;18778;47.610;9.776;2023-02-18T01:00:36;10.70;99.90
7920;DHT22;18778;47.610;9.776;2023-02-18T01:03:02;9.90;99.90
7920;DHT22;18778;47.610;9.776;2023-02-18T01:05:28;9.90;99.90
7920;DHT22;18778;47.610;9.776;2023-02-18T01:07:53;9.60;99.90
7920;DHT22;18778;47.610;9.776;2023-02-18T01:10:19;9.70;99.90
7920;DHT22;18778;47.610;9.776;2023-02-18T01:12:45;9.80;99.90
7920;DHT22;18778;47.610;9.776;2023-02-18T01:15:14;9.60;99.90
7920;DHT22;18778;47.610;9.776;2023-02-18T01:17:39;9.70;99.90
7920;DHT22;18778;47.610;9.776;2023-02-18T01:20:06;9.30;99.90
7920;DHT22;18778;47.610;9.776;2023-02-18T01:22:31;9.60;99.90
7920;DHT22;18778;47.610;9.776;2023-02-18T01:24:57;9.30;99.90
7920;DHT22;18778;47.610;9.776;2023-02-18T01:27:22;9.50;99.90
7920;DHT22;18778;47.610;9.776;2023-02-18T01:29:49;9.50;99.90
7920;DHT22;18778;47.610;9.776;2023-02-18T01:32:14;9.60;99.90
7920;DHT22;18778;47.610;9.776;2023-02-18T01:34:40;9.40;99.90
7920;DHT22;18778;47.610;9.776;2023-02-18T01:37:05;9.50;99.90
7920;DHT22;18778;47.610;9.776;2023-02-18T01:39:31;9.40;99.90
7920;DHT22;18778;47.610;9.776;2023-02-18T01:41:56;9.40;99.90
7920;DHT22;18778;47.610;9.776;2023-02-18T01:44:25;9.40;99.90
7920;DHT22;18778;47.610;9.776;2023-02-18T01:46:51;9.60;99.90
7920;DHT22;18778;47.610;9.776;2023-02-18T01:49:30;9.50;99.90
7920;DHT22;18778;47.610;9.776;2023-02-18T01:51:59;9.40;99.90
7920;DHT22;18778;47.610;9.776;2023-02-18T01:54:32;9.10;99.90
7920;DHT22;18778;47.610;9.776;2023-02-18T01:57:04;8.90;99.90
7920;DHT22;18778;47.610;9.776;2023-02-18T01:59:33;9.50;99.90
7920;DHT22;18778;47.610;9.776;2023-02-18T02:02:01;9.50;99.90
7920;DHT22;18778;47.610;9.776;2023-02-18T02:04:27;9.50;99.90
7920;DHT22;18778;47.610;9.776;2023-02-18T02:06:52;9.60;99.90
7920;DHT22;18778;47.610;9.776;2023-02-18T02:09:19;9.40;99.90
7920;DHT22;18778;47.610;9.776;2023-02-18T02:26:03;9.60;99.90
7920;DHT22;18778;47.610;9.776;2023-02-18T02:29:00;9.70;99.90
7920;DHT22;18778;47.610;9.776;2023-02-18T02:35:19;9.70;99.90
7920;DHT22;18778;47.610;9.776;2023-02-18T02:38:39;9.80;99.90
7920;DHT22;18778;47.610;9.776;2023-02-18T02:46:43;9.60;99.90
7920;DHT22;18778;47.610;9.776;2023-02-18T02:54:34;9.40;99.90
7920;DHT22;18778;47.610;9.776;2023-02-18T02:59:59;9.20;99.90
7920;DHT22;18778;47.610;9.776;2023-02-18T03:05:34;9.30;99.90
7920;DHT22;18778;47.610;9.776;2023-02-18T03:10:53;13.00;99.90
7920;DHT22;18778;47.610;9.776;2023-02-18T03:16:33;9.40;99.90
7920;DHT22;18778;47.610;9.776;2023-02-18T03:19:09;9.40;99.90
7920;DHT22;18778;47.610;9.776;2023-02-18T03:21:48;9.40;99.90
7920;DHT22;18778;47.610;9.776;2023-02-18T03:24:20;9.40;99.90
7920;DHT22;18778;47.610;9.776;2023-02-18T03:26:49;9.10;99.90
7920;DHT22;18778;47.610;9.776;2023-02-18T03:29:17;12.20;99.90
7920;DHT22;18778;47.610;9.776;2023-02-18T03:31:46;9.30;99.90
7920;DHT22;18778;47.610;9.776;2023-02-18T03:34:16;9.10;99.90
7920;DHT22;18778;47.610;9.776;2023-02-18T03:36:43;10.40;99.90
7920;DHT22;18778;47.610;9.776;2023-02-18T03:39:16;9.40;99.90
7920;DHT22;18778;47.610;9.776;2023-02-18T03:41:43;9.20;99.90
7920;DHT22;18778;47.610;9.776;2023-02-18T03:44:10;9.30;99.90
7920;DHT22;18778;47.610;9.776;2023-02-18T03:46:39;9.40;99.90
7920;DHT22;18778;47.610;9.776;2023-02-18T03:49:07;13.30;99.90
7920;DHT22;18778;47.610;9.776;2023-02-18T03:51:33;10.60;99.90
7920;DHT22;18778;47.610;9.776;2023-02-18T03:53:59;9.40;99.90
7920;DHT22;18778;47.610;9.776;2023-02-18T03:56:25;10.90;99.90
7920;DHT22;18778;47.610;9.776;2023-02-18T03:58:50;9.70;99.90
7920;DHT22;18778;47.610;9.776;2023-02-18T04:01:16;9.40;99.90
7920;DHT22;18778;47.610;9.776;2023-02-18T04:03:42;9.50;99.90
7920;DHT22;18778;47.610;9.776;2023-02-18T04:06:07;9.40;99.90
7920;DHT22;18778;47.610;9.776;2023-02-18T04:08:33;9.10;99.90
7920;DHT22;18778;47.610;9.776;2023-02-18T04:10:58;9.30;99.90
7920;DHT22;18778;47.610;9.776;2023-02-18T04:13:25;9.60;99.90
7920;DHT22;18778;47.610;9.776;2023-02-18T04:15:51;12.40;99.90
7920;DHT22;18778;47.610;9.776;2023-02-18T04:18:17;9.40;99.90
7920;DHT22;18778;47.610;9.776;2023-02-18T04:20:43;9.00;99.90
7920;DHT22;18778;47.610;9.776;2023-02-18T04:23:08;9.20;99.90
7920;DHT22;18778;47.610;9.776;2023-02-18T04:25:34;9.40;99.90
7920;DHT22;18778;47.610;9.776;2023-02-18T04:28:00;9.40;99.90
7920;DHT22;18778;47.610;9.776;2023-02-18T04:30:25;9.40;99.90
7920;DHT22;18778;47.610;9.776;2023-02-18T04:32:51;9.40;99.90
7920;DHT22;18778;47.610;9.776;2023-02-18T04:35:17;9.40;99.90
7920;DHT22;18778;47.610;9.776;2023-02-18T04:37:42;9.20;99.90
7920;DHT22;18778;47.610;9.776;2023-02-18T04:40:08;8.80;99.90
7920;DHT22;18778;47.610;9.776;2023-02-18T04:42:35;9.20;99.90
7920;DHT22;18778;47.610;9.776;2023-02-18T04:45:00;9.30;99.90
7920;DHT22;18778;47.610;9.776;2023-02-18T04:47:26;10.50;99.90
7920;DHT22;18778;47.610;9.776;2023-02-18T04:49:52;9.20;99.90
7920;DHT22;18778;47.610;9.776;2023-02-18T04:52:17;9.10;99.90
7920;DHT22;18778;47.610;9.776;2023-02-18T04:54:43;10.70;99.90
7920;DHT22;18778;47.610;9.776;2023-02-18T04:57:09;9.10;99.90
7920;DHT22;18778;47.610;9.776;2023-02-18T04:59:35;9.10;99.90
7920;DHT22;18778;47.610;9.776;2023-02-18T05:02:00;9.10;99.60
7920;DHT22;18778;47.610;9.776;2023-02-18T05:04:26;9.10;99.70
7920;DHT22;18778;47.610;9.776;2023-02-18T05:06:51;9.10;99.60
7920;DHT22;18778;47.610;9.776;2023-02-18T05:09:17;9.00;99.60
7920;DHT22;18778;47.610;9.776;2023-02-18T05:11:43;8.90;98.90
7920;DHT22;18778;47.610;9.776;2023-02-18T05:14:09;8.60;98.90
7920;DHT22;18778;47.610;9.776;2023-02-18T05:16:34;10.60;99.50
7920;DHT22;18778;47.610;9.776;2023-02-18T05:19:00;8.90;99.50
7920;DHT22;18778;47.610;9.776;2023-02-18T05:21:25;10.10;99.70
7920;DHT22;18778;47.610;9.776;2023-02-18T05:23:51;8.60;99.50
7920;DHT22;18778;47.610;9.776;2023-02-18T05:26:16;8.80;99.50
7920;DHT22;18778;47.610;9.776;2023-02-18T05:28:42;8.60;99.90
7920;DHT22;18778;47.610;9.776;2023-02-18T05:31:07;8.70;99.90
7920;DHT22;18778;47.610;9.776;2023-02-18T05:33:33;8.70;99.90
7920;DHT22;18778;47.610;9.776;2023-02-18T05:35:59;8.30;99.90
7920;DHT22;18778;47.610;9.776;2023-02-18T05:38:24;8.70;99.90
7920;DHT22;18778;47.610;9.776;2023-02-18T05:40:50;11.40;99.90
7920;DHT22;18778;47.610;9.776;2023-02-18T05:43:22;8.80;99.90
7920;DHT22;18778;47.610;9.776;2023-02-18T05:45:47;8.80;99.90
7920;DHT22;18778;47.610;9.776;2023-02-18T05:48:13;8.50;99.90
7920;DHT22;18778;47.610;9.776;2023-02-18T05:50:38;8.30;99.90
7920;DHT22;18778;47.610;9.776;2023-02-18T05:53:04;8.60;99.90
7920;DHT22;18778;47.610;9.776;2023-02-18T05:55:30;10.90;99.90
7920;DHT22;18778;47.610;9.776;2023-02-18T05:57:55;8.80;99.90
7920;DHT22;18778;47.610;9.776;2023-02-18T06:00:21;10.50;99.90
7920;DHT22;18778;47.610;9.776;2023-02-18T06:02:47;8.70;99.90
7920;DHT22;18778;47.610;9.776;2023-02-18T06:05:12;8.70;99.90
7920;DHT22;18778;47.610;9.776;2023-02-18T06:07:38;8.70;99.90
7920;DHT22;18778;47.610;9.776;2023-02-18T06:10:04;10.90;99.90
7920;DHT22;18778;47.610;9.776;2023-02-18T06:12:30;8.70;99.90
7920;DHT22;18778;47.610;9.776;2023-02-18T06:14:56;8.60;99.90
7920;DHT22;18778;47.610;9.776;2023-02-18T06:17:21;8.70;99.90
7920;DHT22;18778;47.610;9.776;2023-02-18T06:19:47;8.90;99.90
7920;DHT22;18778;47.610;9.776;2023-02-18T06:22:13;8.60;99.90
7920;DHT22;18778;47.610;9.776;2023-02-18T06:24:39;8.60;99.90
7920;DHT22;18778;47.610;9.776;2023-02-18T06:27:05;8.60;99.90
7920;DHT22;18778;47.610;9.776;2023-02-18T06:29:31;8.50;99.90
7920;DHT22;18778;47.610;9.776;2023-02-18T06:31:57;8.60;99.90
7920;DHT22;18778;47.610;9.776;2023-02-18T06:34:24;8.10;99.90
7920;DHT22;18778;47.610;9.776;2023-02-18T06:36:49;11.80;99.90
7920;DHT22;18778;47.610;9.776;2023-02-18T06:39:15;8.60;99.90
7920;DHT22;18778;47.610;9.776;2023-02-18T06:41:40;9.10;99.90
7920;DHT22;18778;47.610;9.776;2023-02-18T06:44:06;8.10;99.90
7920;DHT22;18778;47.610;9.776;2023-02-18T06:46:32;8.50;99.90
7920;DHT22;18778;47.610;9.776;2023-02-18T06:48:57;11.90;99.90
7920;DHT22;18778;47.610;9.776;2023-02-18T06:51:23;8.60;99.40
7920;DHT22;18778;47.610;9.776;2023-02-18T06:53:49;8.60;99.00
7920;DHT22;18778;47.610;9.776;2023-02-18T06:56:15;9.50;99.90
7920;DHT22;18778;47.610;9.776;2023-02-18T06:58:40;8.50;99.20
7920;DHT22;18778;47.610;9.776;2023-02-18T07:01:06;8.40;99.10
7920;DHT22;18778;47.610;9.776;2023-02-18T07:03:31;8.20;98.80
7920;DHT22;18778;47.610;9.776;2023-02-18T07:05:57;8.60;98.50
7920;DHT22;18778;47.610;9.776;2023-02-18T07:08:23;8.60;98.60
7920;DHT22;18778;47.610;9.776;2023-02-18T07:10:48;8.90;98.50
7920;DHT22;18778;47.610;9.776;2023-02-18T07:13:14;10.70;99.00
7920;DHT22;18778;47.610;9.776;2023-02-18T07:15:40;8.60;98.60
7920;DHT22;18778;47.610;9.776;2023-02-18T07:18:06;8.60;98.90
7920;DHT22;18778;47.610;9.776;2023-02-18T07:20:31;8.40;98.70
7920;DHT22;18778;47.610;9.776;2023-02-18T07:22:57;8.60;98.60
7920;DHT22;18778;47.610;9.776;2023-02-18T07:25:23;8.60;98.90
7920;DHT22;18778;47.610;9.776;2023-02-18T07:27:50;8.60;99.30
7920;DHT22;18778;47.610;9.776;2023-02-18T07:30:16;8.60;98.90
7920;DHT22;18778;47.610;9.776;2023-02-18T07:32:42;9.80;99.90
7920;DHT22;18778;47.610;9.776;2023-02-18T07:35:10;8.50;99.40
7920;DHT22;18778;47.610;9.776;2023-02-18T07:37:37;9.60;99.90
7920;DHT22;18778;47.610;9.776;2023-02-18T07:40:03;11.10;99.90
7920;DHT22;18778;47.610;9.776;2023-02-18T07:42:29;8.70;99.90
7920;DHT22;18778;47.610;9.776;2023-02-18T07:44:54;8.60;99.90
7920;DHT22;18778;47.610;9.776;2023-02-18T07:47:20;8.50;99.90
7920;DHT22;18778;47.610;9.776;2023-02-18T07:49:46;8.40;99.90
7920;DHT22;18778;47.610;9.776;2023-02-18T07:52:12;8.60;99.90
7920;DHT22;18778;47.610;9.776;2023-02-18T07:54:38;8.60;99.90
7920;DHT22;18778;47.610;9.776;2023-02-18T07:57:04;9.70;99.90
7920;DHT22;18778;47.610;9.776;2023-02-18T07:59:29;8.70;99.90
7920;DHT22;18778;47.610;9.776;2023-02-18T08:01:55;9.10;99.90
7920;DHT22;18778;47.610;9.776;2023-02-18T08:04:20;8.80;99.40
7920;DHT22;18778;47.610;9.776;2023-02-18T08:06:47;9.20;99.80
7920;DHT22;18778;47.610;9.776;2023-02-18T08:09:14;11.60;99.90
7920;DHT22;18778;47.610;9.776;2023-02-18T08:11:41;10.40;99.50
7920;DHT22;18778;47.610;9.776;2023-02-18T08:14:07;9.70;99.30
7920;DHT22;18778;47.610;9.776;2023-02-18T08:16:33;9.70;98.70
7920;DHT22;18778;47.610;9.776;2023-02-18T08:19:00;10.10;98.50
7920;DHT22;18778;47.610;9.776;2023-02-18T08:21:27;9.80;98.70
7920;DHT22;18778;47.610;9.776;2023-02-18T08:23:53;9.90;99.00
7920;DHT22;18778;47.610;9.776;2023-02-18T08:26:19;9.90;98.30
7920;DHT22;18778;47.610;9.776;2023-02-18T08:28:46;10.10;98.50
7920;DHT22;18778;47.610;9.776;2023-02-18T08:31:38;10.30;98.70
7920;DHT22;18778;47.610;9.776;2023-02-18T08:34:03;10.50;98.20
7920;DHT22;18778;47.610;9.776;2023-02-18T08:36:30;10.60;97.40
7920;DHT22;18778;47.610;9.776;2023-02-18T08:38:56;10.50;97.80
7920;DHT22;18778;47.610;9.776;2023-02-18T08:41:22;10.10;97.70
7920;DHT22;18778;47.610;9.776;2023-02-18T08:43:48;10.60;97.50
7920;DHT22;18778;47.610;9.776;2023-02-18T08:46:14;13.70;99.10
7920;DHT22;18778;47.610;9.776;2023-02-18T08:48:41;10.60;97.00
7920;DHT22;18778;47.610;9.776;2023-02-18T08:51:20;10.60;97.20
7920;DHT22;18778;47.610;9.776;2023-02-18T08:53:47;12.10;98.90
7920;DHT22;18778;47.610;9.776;2023-02-18T08:56:14;12.20;98.20
7920;DHT22;18778;47.610;9.776;2023-02-18T08:58:40;10.60;98.20
7920;DHT22;18778;47.610;9.776;2023-02-18T09:01:09;10.70;97.70
7920;DHT22;18778;47.610;9.776;2023-02-18T09:03:35;11.40;98.10
7920;DHT22;18778;47.610;9.776;2023-02-18T09:06:02;12.20;97.80
7920;DHT22;18778;47.610;9.776;2023-02-18T09:08:28;11.00;98.00
7920;DHT22;18778;47.610;9.776;2023-02-18T09:10:55;12.70;98.60
7920;DHT22;18778;47.610;9.776;2023-02-18T09:13:21;11.00;97.50
7920;DHT22;18778;47.610;9.776;2023-02-18T09:15:55;10.80;97.30
7920;DHT22;18778;47.610;9.776;2023-02-18T09:18:21;11.00;96.50
7920;DHT22;18778;47.610;9.776;2023-02-18T09:20:46;11.20;97.00
7920;DHT22;18778;47.610;9.776;2023-02-18T09:23:12;11.40;96.80
7920;DHT22;18778;47.610;9.776;2023-02-18T09:25:38;11.40;96.90
7920;DHT22;18778;47.610;9.776;2023-02-18T09:28:04;11.70;97.10
7920;DHT22;18778;47.610;9.776;2023-02-18T09:30:29;12.00;97.00
7920;DHT22;18778;47.610;9.776;2023-02-18T09:32:55;12.00;96.20
7920;DHT22;18778;47.610;9.776;2023-02-18T09:35:21;13.70;97.50
7920;DHT22;18778;47.610;9.776;2023-02-18T09:37:46;12.00;97.30
7920;DHT22;18778;47.610;9.776;2023-02-18T09:40:26;12.00;98.00
7920;DHT22;18778;47.610;9.776;2023-02-18T09:42:54;12.50;97.70
7920;DHT22;18778;47.610;9.776;2023-02-18T09:45:21;12.60;98.50
7920;DHT22;18778;47.610;9.776;2023-02-18T09:47:48;12.50;98.60
7920;DHT22;18778;47.610;9.776;2023-02-18T09:52:49;12.90;98.40
7920;DHT22;18778;47.610;9.776;2023-02-18T09:57:46;13.10;98.50
7920;DHT22;18778;47.610;9.776;2023-02-18T10:00:22;13.00;97.80
7920;DHT22;18778;47.610;9.776;2023-02-18T10:08:28;13.30;98.40
7920;DHT22;18778;47.610;9.776;2023-02-18T10:10:54;13.60;98.00
7920;DHT22;18778;47.610;9.776;2023-02-18T10:13:26;13.60;97.80
7920;DHT22;18778;47.610;9.776;2023-02-18T10:15:53;13.50;97.40
7920;DHT22;18778;47.610;9.776;2023-02-18T10:18:30;13.50;98.30
7920;DHT22;18778;47.610;9.776;2023-02-18T10:21:07;13.50;98.00
7920;DHT22;18778;47.610;9.776;2023-02-18T10:23:37;13.30;97.90
7920;DHT22;18778;47.610;9.776;2023-02-18T10:26:06;15.40;99.60
7920;DHT22;18778;47.610;9.776;2023-02-18T10:28:34;14.00;97.70
7920;DHT22;18778;47.610;9.776;2023-02-18T10:31:04;14.50;97.50
7920;DHT22;18778;47.610;9.776;2023-02-18T10:33:56;14.70;96.70
7920;DHT22;18778;47.610;9.776;2023-02-18T10:50:34;14.60;97.60
7920;DHT22;18778;47.610;9.776;2023-02-18T10:53:10;14.40;96.70
7920;DHT22;18778;47.610;9.776;2023-02-18T10:55:46;14.30;97.20
7920;DHT22;18778;47.610;9.776;2023-02-18T10:58:35;15.00;97.70
7920;DHT22;18778;47.610;9.776;2023-02-18T11:01:12;14.40;97.40
7920;DHT22;18778;47.610;9.776;2023-02-18T11:03:45;14.90;97.20
7920;DHT22;18778;47.610;9.776;2023-02-18T11:06:20;15.30;96.40
7920;DHT22;18778;47.610;9.776;2023-02-18T11:08:46;15.20;96.30
7920;DHT22;18778;47.610;9.776;2023-02-18T11:11:16;15.50;95.80
7920;DHT22;18778;47.610;9.776;2023-02-18T11:13:52;17.60;97.10
7920;DHT22;18778;47.610;9.776;2023-02-18T11:16:21;15.80;95.60
7920;DHT22;18778;47.610;9.776;2023-02-18T11:21:29;15.80;95.30
7920;DHT22;18778;47.610;9.776;2023-02-18T11:23:55;16.10;95.90
7920;DHT22;18778;47.610;9.776;2023-02-18T11:26:31;15.80;95.50
7920;DHT22;18778;47.610;9.776;2023-02-18T11:29:06;18.20;96.70
7920;DHT22;18778;47.610;9.776;2023-02-18T11:31:45;15.60;95.50
7920;DHT22;18778;47.610;9.776;2023-02-18T11:34:29;15.40;95.60
7920;DHT22;18778;47.610;9.776;2023-02-18T11:37:07;15.40;95.70
7920;DHT22;18778;47.610;9.776;2023-02-18T11:39:34;15.10;96.10
7920;DHT22;18778;47.610;9.776;2023-02-18T11:42:06;15.40;96.40
7920;DHT22;18778;47.610;9.776;2023-02-18T11:48:01;15.40;96.00
7920;DHT22;18778;47.610;9.776;2023-02-18T11:50:32;15.00;96.30
7920;DHT22;18778;47.610;9.776;2023-02-18T11:52:58;15.00;96.20
7920;DHT22;18778;47.610;9.776;2023-02-18T11:55:27;15.20;96.20
7920;DHT22;18778;47.610;9.776;2023-02-18T11:58:00;15.30;96.00
7920;DHT22;18778;47.610;9.776;2023-02-18T12:00:50;15.50;96.10
7920;DHT22;18778;47.610;9.776;2023-02-18T12:06:13;14.90;95.80
7920;DHT22;18778;47.610;9.776;2023-02-18T12:11:42;14.90;96.10
7920;DHT22;18778;47.610;9.776;2023-02-18T12:14:16;14.70;96.10
7920;DHT22;18778;47.610;9.776;2023-02-18T12:25:03;14.70;97.00
7920;DHT22;18778;47.610;9.776;2023-02-18T12:28:03;14.60;96.50
7920;DHT22;18778;47.610;9.776;2023-02-18T12:39:14;14.60;96.90
7920;DHT22;18778;47.610;9.776;2023-02-18T12:48:10;15.20;95.90
7920;DHT22;18778;47.610;9.776;2023-02-18T12:54:24;15.60;95.50
7920;DHT22;18778;47.610;9.776;2023-02-18T12:57:06;15.50;95.70
7920;DHT22;18778;47.610;9.776;2023-02-18T12:59:49;15.60;95.30
7920;DHT22;18778;47.610;9.776;2023-02-18T13:08:02;15.60;95.70
7920;DHT22;18778;47.610;9.776;2023-02-18T13:11:01;15.50;96.30
7920;DHT22;18778;47.610;9.776;2023-02-18T13:13:34;15.50;95.80
7920;DHT22;18778;47.610;9.776;2023-02-18T13:16:09;15.50;95.80
7920;DHT22;18778;47.610;9.776;2023-02-18T13:18:42;15.50;95.30
7920;DHT22;18778;47.610;9.776;2023-02-18T13:21:12;15.80;95.80
7920;DHT22;18778;47.610;9.776;2023-02-18T13:23:49;16.30;95.00
7920;DHT22;18778;47.610;9.776;2023-02-18T13:28:46;17.00;93.70
7920;DHT22;18778;47.610;9.776;2023-02-18T13:34:08;16.50;93.80
7920;DHT22;18778;47.610;9.776;2023-02-18T13:39:17;16.10;94.80
7920;DHT22;18778;47.610;9.776;2023-02-18T13:41:46;16.10;94.10
7920;DHT22;18778;47.610;9.776;2023-02-18T13:46:57;15.90;94.90
7920;DHT22;18778;47.610;9.776;2023-02-18T13:49:34;16.10;95.20
7920;DHT22;18778;47.610;9.776;2023-02-18T13:52:02;16.40;94.50
7920;DHT22;18778;47.610;9.776;2023-02-18T13:54:37;16.50;94.60
7920;DHT22;18778;47.610;9.776;2023-02-18T13:59:41;16.30;93.90
7920;DHT22;18778;47.610;9.776;2023-02-18T14:18:07;16.30;94.00
7920;DHT22;18778;47.610;9.776;2023-02-18T14:34:04;15.50;95.40
7920;DHT22;18778;47.610;9.776;2023-02-18T14:37:11;15.40;95.20
7920;DHT22;18778;47.610;9.776;2023-02-18T14:40:11;15.40;95.10
7920;DHT22;18778;47.610;9.776;2023-02-18T14:43:06;15.20;95.50
7920;DHT22;18778;47.610;9.776;2023-02-18T14:51:02;14.50;95.70
7920;DHT22;18778;47.610;9.776;2023-02-18T14:56:03;14.30;96.00
7920;DHT22;18778;47.610;9.776;2023-02-18T14:58:36;14.50;96.50
7920;DHT22;18778;47.610;9.776;2023-02-18T15:01:19;14.20;96.40
7920;DHT22;18778;47.610;9.776;2023-02-18T15:03:47;14.30;96.70
7920;DHT22;18778;47.610;9.776;2023-02-18T15:06:33;14.30;96.80
7920;DHT22;18778;47.610;9.776;2023-02-18T15:09:00;14.20;96.70
7920;DHT22;18778;47.610;9.776;2023-02-18T15:11:35;14.20;96.50
7920;DHT22;18778;47.610;9.776;2023-02-18T15:14:08;14.10;96.30
7920;DHT22;18778;47.610;9.776;2023-02-18T15:16:35;14.10;96.50
7920;DHT22;18778;47.610;9.776;2023-02-18T15:19:10;14.10;96.50
7920;DHT22;18778;47.610;9.776;2023-02-18T15:21:40;14.10;96.40
7920;DHT22;18778;47.610;9.776;2023-02-18T15:26:55;14.00;96.80
7920;DHT22;18778;47.610;9.776;2023-02-18T15:29:23;13.90;96.30
7920;DHT22;18778;47.610;9.776;2023-02-18T15:31:49;13.70;96.80
7920;DHT22;18778;47.610;9.776;2023-02-18T15:34:36;14.20;97.60
7920;DHT22;18778;47.610;9.776;2023-02-18T15:37:04;13.70;96.90
7920;DHT22;18778;47.610;9.776;2023-02-18T15:39:31;13.80;97.30
7920;DHT22;18778;47.610;9.776;2023-02-18T15:42:01;13.50;97.50
7920;DHT22;18778;47.610;9.776;2023-02-18T15:44:31;13.30;97.30
7920;DHT22;18778;47.610;9.776;2023-02-18T15:47:07;13.30;97.30
7920;DHT22;18778;47.610;9.776;2023-02-18T15:49:35;13.20;97.80
7920;DHT22;18778;47.610;9.776;2023-02-18T15:52:02;13.40;98.10
7920;DHT22;18778;47.610;9.776;2023-02-18T15:54:29;13.20;97.80
7920;DHT22;18778;47.610;9.776;2023-02-18T15:56:56;13.10;98.10
7920;DHT22;18778;47.610;9.776;2023-02-18T15:59:31;13.00;98.00
7920;DHT22;18778;47.610;9.776;2023-02-18T16:02:18;12.90;98.20
7920;DHT22;18778;47.610;9.776;2023-02-18T16:04:50;12.80;98.40
7920;DHT22;18778;47.610;9.776;2023-02-18T16:07:21;12.60;98.20
7920;DHT22;18778;47.610;9.776;2023-02-18T16:09:47;13.90;99.20
7920;DHT22;18778;47.610;9.776;2023-02-18T16:14:53;12.50;98.60
7920;DHT22;18778;47.610;9.776;2023-02-18T16:17:27;12.40;99.00
7920;DHT22;18778;47.610;9.776;2023-02-18T16:19:55;12.40;99.30
7920;DHT22;18778;47.610;9.776;2023-02-18T16:24:48;12.40;99.10
7920;DHT22;18778;47.610;9.776;2023-02-18T16:27:16;12.40;99.20
7920;DHT22;18778;47.610;9.776;2023-02-18T16:29:43;12.30;98.80
7920;DHT22;18778;47.610;9.776;2023-02-18T16:32:09;12.30;99.30
7920;DHT22;18778;47.610;9.776;2023-02-18T16:34:34;12.10;99.00
7920;DHT22;18778;47.610;9.776;2023-02-18T16:37:01;12.90;99.90
7920;DHT22;18778;47.610;9.776;2023-02-18T16:39:45;13.00;99.90
7920;DHT22;18778;47.610;9.776;2023-02-18T16:42:11;11.60;99.60
7920;DHT22;18778;47.610;9.776;2023-02-18T16:44:38;12.10;99.90
7920;DHT22;18778;47.610;9.776;2023-02-18T16:47:04;11.50;99.80
7920;DHT22;18778;47.610;9.776;2023-02-18T16:49:31;11.40;99.90
7920;DHT22;18778;47.610;9.776;2023-02-18T16:51:59;11.40;99.90
7920;DHT22;18778;47.610;9.776;2023-02-18T16:54:25;11.30;99.90
7920;DHT22;18778;47.610;9.776;2023-02-18T16:56:53;11.20;99.90
7920;DHT22;18778;47.610;9.776;2023-02-18T16:59:18;11.10;99.90
7920;DHT22;18778;47.610;9.776;2023-02-18T17:01:44;11.60;99.90
7920;DHT22;18778;47.610;9.776;2023-02-18T17:04:13;11.10;99.90
7920;DHT22;18778;47.610;9.776;2023-02-18T17:06:39;11.10;99.90
7920;DHT22;18778;47.610;9.776;2023-02-18T17:09:14;11.10;99.90
7920;DHT22;18778;47.610;9.776;2023-02-18T17:11:45;11.10;99.90
7920;DHT22;18778;47.610;9.776;2023-02-18T17:14:16;11.00;99.90
7920;DHT22;18778;47.610;9.776;2023-02-18T17:16:52;12.40;99.90
7920;DHT22;18778;47.610;9.776;2023-02-18T17:19:19;10.90;99.90
7920;DHT22;18778;47.610;9.776;2023-02-18T17:21:45;11.90;99.90
7920;DHT22;18778;47.610;9.776;2023-02-18T17:24:15;10.80;99.90
7920;DHT22;18778;47.610;9.776;2023-02-18T17:26:41;11.00;99.90
7920;DHT22;18778;47.610;9.776;2023-02-18T17:29:07;10.80;99.90
7920;DHT22;18778;47.610;9.776;2023-02-18T17:31:39;10.60;99.90
7920;DHT22;18778;47.610;9.776;2023-02-18T17:34:11;10.70;99.90
7920;DHT22;18778;47.610;9.776;2023-02-18T17:36:38;10.70;99.90
7920;DHT22;18778;47.610;9.776;2023-02-18T17:39:12;10.60;99.90
7920;DHT22;18778;47.610;9.776;2023-02-18T17:41:38;10.60;99.90
7920;DHT22;18778;47.610;9.776;2023-02-18T17:44:19;10.60;99.90
7920;DHT22;18778;47.610;9.776;2023-02-18T17:46:46;10.50;99.90
7920;DHT22;18778;47.610;9.776;2023-02-18T17:49:14;10.40;99.90
7920;DHT22;18778;47.610;9.776;2023-02-18T17:51:40;10.30;99.90
7920;DHT22;18778;47.610;9.776;2023-02-18T17:54:14;10.10;99.90
7920;DHT22;18778;47.610;9.776;2023-02-18T17:56:41;10.00;99.90
7920;DHT22;18778;47.610;9.776;2023-02-18T17:59:07;9.70;99.90
7920;DHT22;18778;47.610;9.776;2023-02-18T18:01:32;9.50;99.90
7920;DHT22;18778;47.610;9.776;2023-02-18T18:03:58;9.70;99.90
7920;DHT22;18778;47.610;9.776;2023-02-18T18:06:24;9.50;99.90
7920;DHT22;18778;47.610;9.776;2023-02-18T18:08:49;9.40;99.90
7920;DHT22;18778;47.610;9.776;2023-02-18T18:11:20;9.40;99.90
7920;DHT22;18778;47.610;9.776;2023-02-18T18:13:47;9.30;99.90
7920;DHT22;18778;47.610;9.776;2023-02-18T18:16:14;9.10;99.90
7920;DHT22;18778;47.610;9.776;2023-02-18T18:18:40;8.90;99.90
7920;DHT22;18778;47.610;9.776;2023-02-18T18:21:30;8.90;99.90
7920;DHT22;18778;47.610;9.776;2023-02-18T18:23:56;9.00;99.90
7920;DHT22;18778;47.610;9.776;2023-02-18T18:26:22;9.00;99.90
7920;DHT22;18778;47.610;9.776;2023-02-18T18:28:47;9.00;99.90
7920;DHT22;18778;47.610;9.776;2023-02-18T18:31:16;9.00;99.90
7920;DHT22;18778;47.610;9.776;2023-02-18T18:33:48;9.00;99.90
7920;DHT22;18778;47.610;9.776;2023-02-18T18:36:16;9.00;99.90
7920;DHT22;18778;47.610;9.776;2023-02-18T18:38:44;9.00;99.90
7920;DHT22;18778;47.610;9.776;2023-02-18T18:41:18;9.00;99.90
7920;DHT22;18778;47.610;9.776;2023-02-18T18:43:43;9.00;99.90
7920;DHT22;18778;47.610;9.776;2023-02-18T18:46:09;9.30;99.90
7920;DHT22;18778;47.610;9.776;2023-02-18T18:48:35;8.90;99.90
7920;DHT22;18778;47.610;9.776;2023-02-18T18:51:00;8.90;99.90
7920;DHT22;18778;47.610;9.776;2023-02-18T18:53:32;8.80;99.90
7920;DHT22;18778;47.610;9.776;2023-02-18T18:56:00;8.90;99.90